Time;durP1;ratioP1;P1;durP2;ratioP2;P2;SDS_P1;SDS_P2;PMS_P1;PMS_P2;Temp;Humidity;BMP_temperature;BMP_pressure;BME280_temperature;BME280_humidity;BME280_pressure;Samples;Min_cycle;Max_cycle;Signal;HPM_P1;HPM_P2
2022/06/13 00:00:14;;;;;;;19.58;9.38;;;;;;;;;;4361786;32;20522;-75
2022/06/13 00:02:39;;;;;;;17.87;8.40;;;;;;;;;;4348557;32;20031;-75
2022/06/13 00:05:06;;;;;;;17.52;7.72;;;;;;;;;;4361800;32;20361;-75
2022/06/13 00:07:31;;;;;;;17.65;7.85;;;;;;;;;;4361126;32;20125;-74
2022/06/13 00:09:56;;;;;;;16.37;8.02;;;;;;;;;;4361424;32;20031;-74
2022/06/13 00:12:22;;;;;;;18.05;7.55;;;;;;;;;;4361897;32;20031;-75
2022/06/13 00:14:47;;;;;;;26.85;8.32;;;;;;;;;;4361006;32;20023;-75
2022/06/13 00:17:12;;;;;;;18.42;6.22;;;;;;;;;;4362121;32;20054;-74
2022/06/13 00:19:37;;;;;;;17.58;7.68;;;;;;;;;;4360207;33;20023;-74
2022/06/13 00:22:03;;;;;;;17.00;6.20;;;;;;;;;;4360761;32;20031;-75
2022/06/13 00:24:28;;;;;;;16.75;5.95;;;;;;;;;;4348405;33;20053;-76
2022/06/13 00:26:53;;;;;;;13.00;6.03;;;;;;;;;;4361679;33;20053;-75
2022/06/13 00:29:18;;;;;;;26.33;6.05;;;;;;;;;;4361573;33;20027;-76
2022/06/13 00:31:44;;;;;;;17.83;6.35;;;;;;;;;;4362350;33;20054;-75
2022/06/13 00:34:09;;;;;;;27.85;8.15;;;;;;;;;;4361616;32;20057;-75
2022/06/13 00:36:34;;;;;;;19.60;6.43;;;;;;;;;;4345938;33;20040;-74
2022/06/13 00:38:59;;;;;;;18.77;6.10;;;;;;;;;;4346020;27;20028;-77
2022/06/13 00:41:30;;;;;;;14.87;5.80;;;;;;;;;;4345651;33;20040;-77
2022/06/13 00:43:56;;;;;;;18.65;6.05;;;;;;;;;;4336964;33;20093;-78
2022/06/13 00:46:23;;;;;;;18.50;5.75;;;;;;;;;;4330822;33;20028;-77
2022/06/13 00:48:53;;;;;;;21.98;6.55;;;;;;;;;;4330289;33;20078;-77
2022/06/13 00:51:19;;;;;;;21.67;7.00;;;;;;;;;;4330964;33;20059;-77
2022/06/13 00:53:45;;;;;;;17.27;5.87;;;;;;;;;;4330765;33;20099;-77
2022/06/13 00:56:12;;;;;;;21.37;6.72;;;;;;;;;;4331748;33;20047;-77
2022/06/13 00:58:39;;;;;;;19.55;6.37;;;;;;;;;;4333829;33;20024;-77
2022/06/13 01:01:04;;;;;;;19.83;7.10;;;;;;;;;;4332048;33;20438;-77
2022/06/13 01:03:32;;;;;;;18.55;6.30;;;;;;;;;;4333773;33;20058;-77
2022/06/13 01:05:59;;;;;;;21.73;7.68;;;;;;;;;;4333121;33;20032;-77
2022/06/13 01:08:28;;;;;;;19.58;6.93;;;;;;;;;;4333825;33;20028;-77
2022/06/13 01:13:46;;;;;;;21.42;7.32;;;;;;;;;;4341855;33;20058;-77
2022/06/13 01:16:18;;;;;;;15.77;6.57;;;;;;;;;;4333059;33;20035;-77
2022/06/13 01:19:00;;;;;;;24.20;6.85;;;;;;;;;;4333704;33;20023;-77
2022/06/13 01:21:26;;;;;;;26.00;7.30;;;;;;;;;;4333528;33;20089;-77
2022/06/13 01:24:03;;;;;;;18.77;6.70;;;;;;;;;;4332930;33;20028;-77
2022/06/13 01:26:34;;;;;;;23.92;7.28;;;;;;;;;;4333136;33;20020;-77
2022/06/13 01:29:18;;;;;;;25.42;7.97;;;;;;;;;;4344135;33;20035;-77
2022/06/13 01:31:49;;;;;;;21.77;7.60;;;;;;;;;;4333283;33;20024;-78
2022/06/13 01:34:19;;;;;;;22.77;7.90;;;;;;;;;;4333870;33;20028;-78
2022/06/13 01:36:53;;;;;;;30.60;7.85;;;;;;;;;;4332976;33;20035;-78
2022/06/13 01:39:34;;;;;;;23.62;7.62;;;;;;;;;;4332360;33;20062;-78
2022/06/13 01:42:02;;;;;;;20.40;7.60;;;;;;;;;;4332510;33;20054;-77
2022/06/13 01:44:46;;;;;;;16.33;7.20;;;;;;;;;;4333038;33;20066;-78
2022/06/13 01:47:19;;;;;;;22.42;7.82;;;;;;;;;;4332641;33;20414;-78
2022/06/13 01:49:47;;;;;;;22.55;7.03;;;;;;;;;;4333179;33;20087;-77
2022/06/13 01:52:39;;;;;;;31.85;8.07;;;;;;;;;;4332991;33;20027;-77
2022/06/13 01:55:08;;;;;;;26.05;8.32;;;;;;;;;;4322511;33;20027;-78
2022/06/13 01:57:36;;;;;;;24.50;7.60;;;;;;;;;;4347518;33;20036;-78
2022/06/13 02:00:13;;;;;;;29.50;8.20;;;;;;;;;;4348099;33;20027;-77
2022/06/13 02:11:49;;;;;;;27.67;10.52;;;;;;;;;;4346786;33;20062;-77
2022/06/13 02:30:14;;;;;;;22.05;9.02;;;;;;;;;;4315849;33;20460;-77
2022/06/13 02:42:34;;;;;;;32.53;8.95;;;;;;;;;;4314783;33;20457;-77
2022/06/13 02:45:02;;;;;;;31.15;10.15;;;;;;;;;;4244407;33;20030;-76
2022/06/13 02:48:05;;;;;;;33.35;9.20;;;;;;;;;;4251240;33;20041;-78
2022/06/13 02:53:55;;;;;;;30.17;9.27;;;;;;;;;;4258009;33;20106;-77
2022/06/13 03:06:17;;;;;;;20.85;8.07;;;;;;;;;;4243263;33;20070;-78
2022/06/13 03:11:53;;;;;;;14.63;5.18;;;;;;;;;;4310356;33;20059;-78
2022/06/13 03:14:34;;;;;;;15.05;4.70;;;;;;;;;;4328589;33;20032;-78
2022/06/13 03:20:16;;;;;;;10.90;3.70;;;;;;;;;;4331640;33;20358;-77
2022/06/13 03:23:10;;;;;;;15.40;4.62;;;;;;;;;;4331250;33;20114;-76
2022/06/13 03:25:43;;;;;;;12.73;4.28;;;;;;;;;;4329973;33;20063;-77
2022/06/13 03:52:36;;;;;;;11.25;3.80;;;;;;;;;;4314403;33;20079;-77
2022/06/13 04:01:54;;;;;;;10.38;3.10;;;;;;;;;;4300004;33;20042;-77
2022/06/13 04:08:03;;;;;;;;;;;;;;;;;;;;;
2022/06/13 04:29:24;;;;;;;;;;;;;;;;;;;;;
2022/06/13 04:41:32;;;;;;;12.68;3.90;;;;;;;;;;4220436;34;20147;-77
2022/06/13 04:44:11;;;;;;;8.10;3.03;;;;;;;;;;4233699;33;20057;-77
2022/06/13 04:49:30;;;;;;;10.82;3.35;;;;;;;;;;4273728;33;20076;-77
2022/06/13 04:52:53;;;;;;;;;;;;;;;;;;;;;
2022/06/13 04:54:56;;;;;;;;;;;;;;;;;;;;;
2022/06/13 04:57:53;;;;;;;9.25;3.12;;;;;;;;;;4287843;33;20037;-78
2022/06/13 05:00:22;;;;;;;7.50;2.72;;;;;;;;;;4288080;33;20041;-78
2022/06/13 05:02:58;;;;;;;11.27;2.80;;;;;;;;;;4287507;33;20033;-77
2022/06/13 05:06:08;;;;;;;8.02;2.72;;;;;;;;;;4288085;33;20071;-76
2022/06/13 05:08:36;;;;;;;8.50;2.97;;;;;;;;;;4322789;33;20032;-77
2022/06/13 05:11:29;;;;;;;16.35;3.65;;;;;;;;;;4324272;33;20111;-77
2022/06/13 05:14:31;;;;;;;10.25;3.00;;;;;;;;;;4328677;33;20036;-77
2022/06/13 05:17:32;;;;;;;9.05;2.62;;;;;;;;;;4332362;33;20071;-77
2022/06/13 05:23:18;;;;;;;8.50;2.45;;;;;;;;;;4317055;33;20111;-78
2022/06/13 05:29:31;;;;;;;9.80;2.92;;;;;;;;;;4320711;33;20036;-76
2022/06/13 05:31:56;;;;;;;9.95;3.15;;;;;;;;;;4329864;33;20071;-77
2022/06/13 05:34:48;;;;;;;9.68;2.78;;;;;;;;;;4343718;33;20020;-77
2022/06/13 05:37:23;;;;;;;13.25;3.15;;;;;;;;;;4333046;33;20024;-77
2022/06/13 05:39:57;;;;;;;10.63;2.65;;;;;;;;;;4343644;33;20036;-76
2022/06/13 05:42:22;;;;;;;10.43;2.97;;;;;;;;;;4332205;33;20433;-75
2022/06/13 05:44:47;;;;;;;10.65;3.22;;;;;;;;;;4332408;33;20055;-77
2022/06/13 05:47:17;;;;;;;13.48;3.50;;;;;;;;;;4333303;33;20066;-77
2022/06/13 05:49:42;;;;;;;10.82;3.12;;;;;;;;;;4332162;33;20052;-77
2022/06/13 05:52:11;;;;;;;10.13;3.12;;;;;;;;;;4332984;33;20058;-76
2022/06/13 05:54:39;;;;;;;10.05;2.85;;;;;;;;;;4332630;33;20134;-77
2022/06/13 05:57:05;;;;;;;8.93;2.95;;;;;;;;;;4332299;33;20059;-78
2022/06/13 05:59:30;;;;;;;10.02;2.60;;;;;;;;;;4339240;33;20028;-77
2022/06/13 06:01:58;;;;;;;10.15;2.47;;;;;;;;;;4332514;33;20108;-76
2022/06/13 06:04:23;;;;;;;7.20;2.85;;;;;;;;;;4332362;33;20048;-77
2022/06/13 06:06:52;;;;;;;8.82;2.72;;;;;;;;;;4344802;33;20082;-76
2022/06/13 06:09:54;;;;;;;11.35;3.08;;;;;;;;;;4332315;33;20049;-75
2022/06/13 06:12:19;;;;;;;8.00;2.10;;;;;;;;;;4317878;33;20054;-78
2022/06/13 06:14:44;;;;;;;8.65;2.87;;;;;;;;;;4318167;33;20029;-76
2022/06/13 06:17:09;;;;;;;7.35;2.25;;;;;;;;;;4317796;33;20055;-76
2022/06/13 06:19:35;;;;;;;6.82;2.35;;;;;;;;;;4317281;33;20020;-77
2022/06/13 06:22:03;;;;;;;7.68;2.00;;;;;;;;;;4316951;33;20124;-76
2022/06/13 06:24:36;;;;;;;4.85;1.70;;;;;;;;;;4317537;33;20415;-76
2022/06/13 06:27:02;;;;;;;9.45;2.05;;;;;;;;;;4317479;33;20122;-76
2022/06/13 06:29:27;;;;;;;6.03;1.77;;;;;;;;;;4317340;33;20099;-76
2022/06/13 06:31:52;;;;;;;10.48;1.77;;;;;;;;;;4317722;33;20075;-76
2022/06/13 06:34:18;;;;;;;10.48;2.28;;;;;;;;;;4316999;33;20445;-75
2022/06/13 06:37:03;;;;;;;13.13;2.40;;;;;;;;;;4327992;33;20032;-77
2022/06/13 06:39:29;;;;;;;6.60;2.08;;;;;;;;;;4314822;33;20029;-77
2022/06/13 06:41:55;;;;;;;9.80;3.25;;;;;;;;;;4331910;33;20031;-77
2022/06/13 06:44:21;;;;;;;8.20;2.30;;;;;;;;;;4332350;33;20071;-77
2022/06/13 06:46:48;;;;;;;11.25;2.10;;;;;;;;;;4331755;33;20071;-76
2022/06/13 06:49:13;;;;;;;8.95;2.37;;;;;;;;;;4331154;33;20032;-75
2022/06/13 06:52:00;;;;;;;;;;;;;;;;;;;;;
2022/06/13 07:00:17;;;;;;;15.57;2.92;;;;;;;;;;4330231;33;20379;-76
2022/06/13 07:02:43;;;;;;;7.80;2.30;;;;;;;;;;4331719;33;20028;-77
2022/06/13 07:05:09;;;;;;;11.50;1.70;;;;;;;;;;4330738;33;20074;-77
2022/06/13 07:07:45;;;;;;;7.37;2.05;;;;;;;;;;4331726;33;20028;-77
2022/06/13 07:10:24;;;;;;;;;;;;;;;;;;;;;
2022/06/13 07:13:15;;;;;;;6.78;1.85;;;;;;;;;;4330667;33;20036;-76
2022/06/13 07:21:21;;;;;;;5.85;1.65;;;;;;;;;;4332038;33;20310;-77
2022/06/13 07:23:47;;;;;;;5.68;1.85;;;;;;;;;;4330338;33;20056;-77
2022/06/13 07:26:35;;;;;;;5.78;1.80;;;;;;;;;;4331552;33;20070;-77
2022/06/13 07:29:09;;;;;;;11.10;1.30;;;;;;;;;;4331649;33;20050;-76
2022/06/13 07:32:26;;;;;;;;;;;;;;;;;;;;;
2022/06/13 07:35:02;;;;;;;8.57;2.23;;;;;;;;;;4318400;33;20039;-78
2022/06/13 07:40:15;;;;;;;6.82;2.15;;;;;;;;;;4331413;33;20062;-77
2022/06/13 07:42:57;;;;;;;6.95;1.62;;;;;;;;;;4331314;33;20031;-77
2022/06/13 07:45:24;;;;;;;7.68;2.05;;;;;;;;;;4331674;33;20024;-77
2022/06/13 07:48:01;;;;;;;10.60;2.58;;;;;;;;;;4331046;33;20062;-77
2022/06/13 07:53:22;;;;;;;13.00;3.30;;;;;;;;;;4314219;33;20050;-76
2022/06/13 07:56:30;;;;;;;11.93;2.50;;;;;;;;;;4328113;33;20386;-77
2022/06/13 07:58:40;;;;;;;12.88;2.62;;;;;;;;;;4328707;33;20060;-77
2022/06/13 08:01:25;;;;;;;12.02;1.92;;;;;;;;;;4329697;33;20020;-77
2022/06/13 08:07:01;;;;;;;10.10;2.30;;;;;;;;;;4325055;33;20460;-77
2022/06/13 08:09:39;;;;;;;10.23;2.50;;;;;;;;;;4331236;33;20082;-77
2022/06/13 08:12:15;;;;;;;8.73;2.17;;;;;;;;;;4330938;33;20020;-77
2022/06/13 08:14:45;;;;;;;9.07;2.00;;;;;;;;;;4341695;33;20036;-76
2022/06/13 08:17:11;;;;;;;9.43;1.98;;;;;;;;;;4329890;33;20034;-76
2022/06/13 08:19:37;;;;;;;9.10;2.10;;;;;;;;;;4330902;33;20093;-76
2022/06/13 08:22:26;;;;;;;11.63;2.28;;;;;;;;;;4330599;33;20156;-76
2022/06/13 08:24:51;;;;;;;7.47;1.80;;;;;;;;;;4327762;33;20090;-77
2022/06/13 08:27:16;;;;;;;11.68;1.73;;;;;;;;;;4331299;33;20062;-76
2022/06/13 08:29:42;;;;;;;3.40;1.42;;;;;;;;;;4330376;33;20028;-77
2022/06/13 08:32:18;;;;;;;5.80;1.75;;;;;;;;;;4331242;33;20103;-77
2022/06/13 08:37:50;;;;;;;8.83;1.70;;;;;;;;;;4330372;33;20066;-77
2022/06/13 08:43:19;;;;;;;7.28;1.75;;;;;;;;;;4346020;33;20034;-77
2022/06/13 08:45:49;;;;;;;8.77;1.70;;;;;;;;;;4346467;33;20054;-77
2022/06/13 09:01:15;;;;;;;10.10;1.98;;;;;;;;;;4257157;33;20052;-76
2022/06/13 09:03:48;;;;;;;7.07;1.60;;;;;;;;;;4256630;33;20074;-77
2022/06/13 09:06:19;;;;;;;10.73;2.53;;;;;;;;;;4302589;33;20065;-76
2022/06/13 09:08:47;;;;;;;6.35;2.00;;;;;;;;;;4329550;33;20024;-77
2022/06/13 09:11:18;;;;;;;8.40;2.12;;;;;;;;;;4345434;33;20411;-76
2022/06/13 09:14:07;;;;;;;9.77;1.90;;;;;;;;;;4344998;33;20058;-77
2022/06/13 09:16:42;;;;;;;8.50;2.15;;;;;;;;;;4344044;33;20093;-75
2022/06/13 09:19:24;;;;;;;8.57;2.10;;;;;;;;;;4349382;32;20073;-77
2022/06/13 09:40:02;;;;;;;8.20;1.75;;;;;;;;;;4302542;33;20068;-78
2022/06/13 09:42:37;;;;;;;15.57;8.80;;;;;;;;;;4295584;33;20067;-78
2022/06/13 10:04:26;;;;;;;12.73;4.80;;;;;;;;;;4175125;34;20059;-78
2022/06/13 10:07:13;;;;;;;11.43;2.37;;;;;;;;;;4175333;34;20044;-77
2022/06/13 10:15:56;;;;;;;10.00;1.98;;;;;;;;;;4202894;34;20076;-78
2022/06/13 10:18:51;;;;;;;9.02;1.62;;;;;;;;;;4226915;33;20037;-77
2022/06/13 10:21:40;;;;;;;7.90;1.90;;;;;;;;;;4332365;33;20331;-77
2022/06/13 10:36:40;;;;;;;7.65;1.75;;;;;;;;;;4315225;33;20165;-77
2022/06/13 10:39:13;;;;;;;7.97;2.35;;;;;;;;;;4314985;33;20335;-76
2022/06/13 10:44:31;;;;;;;13.55;2.25;;;;;;;;;;4301606;33;20028;-76
2022/06/13 10:47:26;;;;;;;5.80;1.65;;;;;;;;;;4315188;33;20086;-76
2022/06/13 10:50:01;;;;;;;9.15;2.15;;;;;;;;;;4316005;33;20016;-76
2022/06/13 10:52:30;;;;;;;6.05;1.90;;;;;;;;;;4317665;33;20234;-77
2022/06/13 10:54:57;;;;;;;10.43;2.10;;;;;;;;;;4318228;33;20076;-76
2022/06/13 10:57:27;;;;;;;5.70;2.15;;;;;;;;;;4331537;33;20047;-76
2022/06/13 11:00:11;;;;;;;6.72;1.62;;;;;;;;;;4332985;33;20059;-76
2022/06/13 11:02:48;;;;;;;6.05;1.77;;;;;;;;;;4331515;33;20474;-77
2022/06/13 11:05:48;;;;;;;8.45;2.17;;;;;;;;;;4330372;33;20117;-77
2022/06/13 11:08:17;;;;;;;8.93;1.80;;;;;;;;;;4299793;33;20457;-76
2022/06/13 11:10:54;;;;;;;11.02;2.40;;;;;;;;;;4331801;33;20040;-76
2022/06/13 11:13:36;;;;;;;13.70;2.90;;;;;;;;;;4332169;33;20024;-76
2022/06/13 11:31:09;;;;;;;7.45;1.87;;;;;;;;;;4257917;33;20055;-77
2022/06/13 11:33:59;;;;;;;8.40;3.12;;;;;;;;;;4258884;33;20038;-78
2022/06/13 11:36:26;;;;;;;13.68;2.20;;;;;;;;;;4258649;33;20061;-76
2022/06/13 11:39:05;;;;;;;7.35;2.58;;;;;;;;;;4258368;33;20063;-77
2022/06/13 11:56:04;;;;;;;12.32;2.47;;;;;;;;;;4339115;33;20071;-77
2022/06/13 11:58:32;;;;;;;7.25;1.98;;;;;;;;;;4346245;33;20019;-74
2022/06/13 12:01:23;;;;;;;9.82;2.65;;;;;;;;;;4346059;33;20063;-76
2022/06/13 12:04:08;;;;;;;10.52;2.10;;;;;;;;;;4315004;33;20099;-77
2022/06/13 12:06:43;;;;;;;6.10;2.15;;;;;;;;;;4314917;33;20066;-77
2022/06/13 12:09:44;;;;;;;7.28;1.80;;;;;;;;;;4340850;33;20027;-77
2022/06/13 12:15:24;;;;;;;7.95;2.30;;;;;;;;;;4346494;33;20083;-76
2022/06/13 12:18:28;;;;;;;4.37;1.70;;;;;;;;;;4344852;33;20031;-78
2022/06/13 12:21:08;;;;;;;10.38;2.30;;;;;;;;;;4346276;33;20066;-78
2022/06/13 12:23:38;;;;;;;9.18;2.33;;;;;;;;;;4346841;33;20027;-78
2022/06/13 12:26:15;;;;;;;6.90;2.25;;;;;;;;;;4337355;33;20032;-77
2022/06/13 12:28:53;;;;;;;11.25;3.12;;;;;;;;;;4330817;33;20025;-77
2022/06/13 12:34:22;;;;;;;10.75;2.40;;;;;;;;;;4330850;33;20465;-77
2022/06/13 12:37:25;;;;;;;;;;;;;;;;;;;;;
2022/06/13 12:40:04;;;;;;;9.73;2.45;;;;;;;;;;4330503;33;20048;-78
2022/06/13 12:45:28;;;;;;;8.32;2.37;;;;;;;;;;4329938;33;20079;-78
2022/06/13 12:51:27;;;;;;;;;;;;;;;;;;;;;
2022/06/13 12:53:53;;;;;;;6.87;1.90;;;;;;;;;;4286850;33;20168;-76
2022/06/13 12:56:57;;;;;;;7.93;2.85;;;;;;;;;;4330847;33;20024;-78
2022/06/13 12:59:38;;;;;;;7.05;2.15;;;;;;;;;;4337921;33;20031;-77
2022/06/13 13:02:32;;;;;;;7.97;2.58;;;;;;;;;;4347098;33;20066;-78
2022/06/13 13:05:34;;;;;;;6.28;2.30;;;;;;;;;;4346301;33;20117;-76
2022/06/13 13:08:00;;;;;;;6.95;2.15;;;;;;;;;;4347283;33;20031;-77
2022/06/13 13:23:31;;;;;;;5.72;1.67;;;;;;;;;;4323702;33;20473;-78
2022/06/13 13:26:36;;;;;;;3.90;2.15;;;;;;;;;;4338596;33;20035;-77
2022/06/13 13:29:26;;;;;;;11.20;2.37;;;;;;;;;;4332108;33;20040;-77
2022/06/13 13:32:07;;;;;;;13.18;2.90;;;;;;;;;;4332060;33;20039;-77
2022/06/13 13:34:39;;;;;;;8.85;2.65;;;;;;;;;;4332510;33;20346;-78
2022/06/13 13:37:23;;;;;;;7.85;2.45;;;;;;;;;;4331719;33;20051;-78
2022/06/13 13:39:58;;;;;;;10.30;2.72;;;;;;;;;;4331770;33;20039;-78
2022/06/13 13:42:33;;;;;;;9.70;2.65;;;;;;;;;;4331809;33;20040;-77
2022/06/13 13:45:11;;;;;;;;;;;;;;;;;;;;;
2022/06/13 13:50:29;;;;;;;7.55;2.30;;;;;;;;;;4332692;33;20458;-77
2022/06/13 13:53:01;;;;;;;7.60;2.10;;;;;;;;;;4333285;33;20041;-76
2022/06/13 13:55:37;;;;;;;7.18;2.08;;;;;;;;;;4341107;33;20027;-77
2022/06/13 13:58:13;;;;;;;7.07;2.10;;;;;;;;;;4347422;32;20078;-77
2022/06/13 14:00:51;;;;;;;6.30;2.30;;;;;;;;;;4347200;33;20024;-76
2022/06/13 14:03:26;;;;;;;6.53;2.15;;;;;;;;;;4347547;33;20020;-76
2022/06/13 14:05:57;;;;;;;6.57;2.50;;;;;;;;;;4346713;33;20024;-76
2022/06/13 14:08:27;;;;;;;6.85;2.35;;;;;;;;;;4346716;33;20031;-77
2022/06/13 14:10:57;;;;;;;9.10;2.87;;;;;;;;;;4347275;33;20058;-77
2022/06/13 14:13:49;;;;;;;8.50;2.60;;;;;;;;;;4347260;33;20044;-78
2022/06/13 14:16:34;;;;;;;7.82;2.58;;;;;;;;;;4345677;33;20082;-76
2022/06/13 14:19:12;;;;;;;8.00;2.62;;;;;;;;;;4347197;32;20035;-76
2022/06/13 14:22:03;;;;;;;8.50;2.58;;;;;;;;;;4347702;33;20409;-77
2022/06/13 14:25:08;;;;;;;6.30;2.33;;;;;;;;;;4340985;33;20066;-77
2022/06/13 14:27:50;;;;;;;5.87;2.10;;;;;;;;;;4315055;33;20104;-75
2022/06/13 14:35:11;;;;;;;10.25;2.35;;;;;;;;;;4339453;33;20439;-76
2022/06/13 14:35:59;;;;;;;6.57;1.90;;;;;;;;;;4346396;33;20093;-76
2022/06/13 14:41:46;;;;;;;6.65;2.00;;;;;;;;;;4326824;33;20060;-77
2022/06/13 14:44:25;;;;;;;6.60;2.22;;;;;;;;;;4347024;33;20069;-77
2022/06/13 14:53:40;;;;;;;6.00;2.08;;;;;;;;;;4329874;33;20418;-74
2022/06/13 14:56:05;;;;;;;8.18;2.95;;;;;;;;;;4345058;33;20362;-76
2022/06/13 15:02:21;;;;;;;10.45;2.22;;;;;;;;;;4328439;33;20036;-76
2022/06/13 15:04:59;;;;;;;9.18;2.80;;;;;;;;;;4346209;33;20020;-76
2022/06/13 15:07:37;;;;;;;5.47;2.20;;;;;;;;;;4346250;33;20390;-75
2022/06/13 15:10:05;;;;;;;8.27;2.10;;;;;;;;;;4346146;33;20057;-76
2022/06/13 15:12:38;;;;;;;10.13;2.45;;;;;;;;;;4346093;33;20032;-76
2022/06/13 15:15:09;;;;;;;6.68;1.80;;;;;;;;;;4345937;33;20016;-75
2022/06/13 15:17:41;;;;;;;6.82;2.30;;;;;;;;;;4346679;33;20028;-74
2022/06/13 15:20:12;;;;;;;7.40;2.33;;;;;;;;;;4346715;33;20413;-76
2022/06/13 15:22:40;;;;;;;6.93;1.80;;;;;;;;;;4333176;33;20063;-78
2022/06/13 15:25:08;;;;;;;6.72;2.30;;;;;;;;;;4345817;33;20463;-76
2022/06/13 15:28:35;;;;;;;5.35;2.05;;;;;;;;;;4344503;33;20434;-77
2022/06/13 15:31:03;;;;;;;4.93;1.60;;;;;;;;;;4339743;33;20035;-76
2022/06/13 15:33:50;;;;;;;6.72;2.45;;;;;;;;;;4345691;33;20058;-76
2022/06/13 15:36:15;;;;;;;7.65;2.17;;;;;;;;;;4346690;33;20023;-77
2022/06/13 15:38:42;;;;;;;7.75;2.22;;;;;;;;;;4345566;33;20387;-76
2022/06/13 15:41:15;;;;;;;6.28;2.10;;;;;;;;;;4345831;33;20408;-78
2022/06/13 15:46:51;;;;;;;9.07;2.20;;;;;;;;;;4340315;33;20088;-76
2022/06/13 15:49:36;;;;;;;5.10;1.62;;;;;;;;;;4345977;33;20331;-76
2022/06/13 15:52:04;;;;;;;5.25;2.35;;;;;;;;;;4345590;33;20100;-77
2022/06/13 15:54:33;;;;;;;8.48;2.40;;;;;;;;;;4345510;33;20138;-76
2022/06/13 15:57:37;;;;;;;6.37;2.28;;;;;;;;;;4345813;33;20019;-77
2022/06/13 16:00:03;;;;;;;5.25;2.08;;;;;;;;;;4345399;33;20090;-76
2022/06/13 16:08:57;;;;;;;8.13;2.72;;;;;;;;;;4299758;33;20461;-77
2022/06/13 16:11:26;;;;;;;4.97;2.70;;;;;;;;;;4342218;33;20050;-76
2022/06/13 16:13:55;;;;;;;9.45;2.87;;;;;;;;;;4344781;33;20069;-77
2022/06/13 16:17:06;;;;;;;6.97;1.80;;;;;;;;;;4345720;33;20027;-76
2022/06/13 16:19:24;;;;;;;7.65;2.03;;;;;;;;;;4340239;33;20036;-76
2022/06/13 16:21:51;;;;;;;8.30;2.12;;;;;;;;;;4345480;33;20035;-77
2022/06/13 16:24:34;;;;;;;11.93;3.00;;;;;;;;;;4341399;33;20398;-76
2022/06/13 16:27:00;;;;;;;10.45;2.67;;;;;;;;;;4330024;33;20063;-76
2022/06/13 16:29:39;;;;;;;;;;;;;;;;;;;;;
2022/06/13 16:32:23;;;;;;;8.88;2.95;;;;;;;;;;4328893;33;20036;-77
2022/06/13 16:35:13;;;;;;;;;;;;;;;;;;;;;
2022/06/13 16:38:05;;;;;;;6.00;2.10;;;;;;;;;;4330596;33;20032;-78
2022/06/13 16:46:50;;;;;;;7.12;2.58;;;;;;;;;;4254393;33;20081;-76
2022/06/13 17:11:15;;;;;;;9.75;2.60;;;;;;;;;;4200335;34;20057;-76
2022/06/13 17:23:21;;;;;;;9.48;2.40;;;;;;;;;;4236371;33;20499;-76
2022/06/13 17:46:43;;;;;;;7.97;2.45;;;;;;;;;;4209546;34;20081;-76
2022/06/13 17:49:15;;;;;;;10.57;2.20;;;;;;;;;;4310667;33;20058;-76
2022/06/13 17:51:50;;;;;;;5.80;2.00;;;;;;;;;;4347526;33;20070;-77
2022/06/13 17:54:29;;;;;;;8.95;2.97;;;;;;;;;;4340998;33;20374;-77
2022/06/13 18:00:10;;;;;;;7.00;2.50;;;;;;;;;;4347475;33;20148;-76
2022/06/13 18:05:59;;;;;;;7.95;2.08;;;;;;;;;;4306340;33;20071;-76
2022/06/13 18:08:26;;;;;;;9.27;2.50;;;;;;;;;;4347512;33;20323;-76
2022/06/13 18:20:49;;;;;;;11.88;2.62;;;;;;;;;;4285713;33;20061;-76
2022/06/13 18:23:54;;;;;;;;;;;;;;;;;;;;;
2022/06/13 18:26:40;;;;;;;9.60;2.50;;;;;;;;;;4272057;33;20048;-77
2022/06/13 18:42:06;;;;;;;;;;;;;;;;;;;;;
2022/06/13 18:50:53;;;;;;;13.75;3.37;;;;;;;;;;4269840;33;20060;-76
2022/06/13 18:53:22;;;;;;;10.85;3.22;;;;;;;;;;4257609;33;20068;-76
2022/06/13 18:55:57;;;;;;;;;;;;;;;;;;;;;
2022/06/13 18:58:52;;;;;;;16.23;3.67;;;;;;;;;;4289067;33;20032;-78
2022/06/13 19:19:52;;;;;;;14.82;3.05;;;;;;;;;;4280410;33;20464;-76
2022/06/13 19:29:01;;;;;;;10.27;3.03;;;;;;;;;;4286891;33;20040;-76
2022/06/13 20:12:29;;;;;;;14.35;2.78;;;;;;;;;;4222549;33;20134;-77
2022/06/13 20:15:41;;;;;;;;;;;;;;;;;;;;;
2022/06/13 20:18:44;;;;;;;10.27;2.65;;;;;;;;;;4254942;33;20464;-77
2022/06/13 20:36:43;;;;;;;10.13;2.60;;;;;;;;;;4267797;33;20103;-78
2022/06/13 20:39:11;;;;;;;9.85;3.15;;;;;;;;;;4320971;33;20059;-78
2022/06/13 20:41:56;;;;;;;;;;;;;;;;;;;;;
2022/06/13 20:45:01;;;;;;;;;;;;;;;;;;;;;
2022/06/13 20:47:45;;;;;;;5.72;2.35;;;;;;;;;;4311378;33;20459;-77
2022/06/13 20:50:21;;;;;;;13.02;2.83;;;;;;;;;;4317291;33;20052;-77
2022/06/13 20:52:47;;;;;;;8.77;2.58;;;;;;;;;;4316246;33;20415;-77
2022/06/13 21:05:05;;;;;;;;;;;;;;;;;;;;;
2022/06/13 22:04:34;;;;;;;10.50;3.08;;;;;;;;;;4287654;33;20102;-77
2022/06/13 23:09:32;;;;;;;10.73;3.40;;;;;;;;;;4346043;32;20070;-77
2022/06/13 23:14:41;;;;;;;11.07;3.00;;;;;;;;;;4313495;33;20371;-77
2022/06/13 23:17:10;;;;;;;13.13;3.10;;;;;;;;;;4314600;33;20028;-77
2022/06/13 23:19:40;;;;;;;10.07;3.22;;;;;;;;;;4315024;33;20094;-77
